createdAt,value
2023-02-06T00:00:16.818Z,99711.16
2023-02-06T00:01:18.867Z,99714.94
2023-02-06T00:02:20.643Z,99713.44
2023-02-06T00:03:22.468Z,99678.97
2023-02-06T00:04:24.147Z,99695.16
2023-02-06T00:05:25.850Z,99714.72
2023-02-06T00:06:27.826Z,99716.50
2023-02-06T00:07:29.688Z,99717.53
2023-02-06T00:08:31.542Z,99717.06
2023-02-06T00:09:33.388Z,99712.41
2023-02-06T00:10:35.130Z,99700.13
2023-02-06T00:11:37.020Z,99716.66
2023-02-06T00:12:38.739Z,99720.16
2023-02-06T00:13:40.473Z,99713.22
2023-02-06T00:14:42.209Z,99719.84
2023-02-06T00:15:44.424Z,99713.44
2023-02-06T00:16:46.200Z,99721.72
2023-02-06T00:17:48.258Z,99711.69
2023-02-06T00:18:50.566Z,99718.09
2023-02-06T00:19:52.525Z,99721.47
2023-02-06T00:20:54.308Z,99718.50
2023-02-06T00:21:56.057Z,99706.25
2023-02-06T00:22:57.792Z,99708.53
2023-02-06T00:24:01.597Z,99723.81
2023-02-06T00:25:03.841Z,99729.81
2023-02-06T00:26:06.988Z,99734.16
2023-02-06T00:27:08.821Z,99727.16
2023-02-06T00:28:10.722Z,99732.13
2023-02-06T00:29:13.079Z,99724.69
2023-02-06T00:30:14.947Z,99732.47
2023-02-06T00:31:16.845Z,99727.16
2023-02-06T00:32:18.717Z,99743.69
2023-02-06T00:33:21.293Z,99731.47
2023-02-06T00:34:23.184Z,99720.00
2023-02-06T00:35:24.892Z,99734.56
2023-02-06T00:36:26.769Z,99740.56
2023-02-06T00:37:28.511Z,99739.13
2023-02-06T00:38:31.069Z,99735.50
2023-02-06T00:39:32.807Z,99735.38
2023-02-06T00:40:34.577Z,99732.91
2023-02-06T00:41:36.381Z,99726.19
2023-02-06T00:42:38.109Z,99726.31
2023-02-06T00:43:40.940Z,99723.53
2023-02-06T00:44:42.662Z,99725.94
2023-02-06T00:45:44.388Z,99736.19
2023-02-06T00:46:46.182Z,99744.53
2023-02-06T00:47:47.945Z,99734.63
2023-02-06T00:48:49.808Z,99736.09
2023-02-06T00:49:51.499Z,99731.00
2023-02-06T00:50:54.299Z,99742.94
2023-02-06T00:51:56.088Z,99730.22
2023-02-06T00:52:57.839Z,99740.00
2023-02-06T00:53:59.539Z,99744.75
2023-02-06T00:55:01.268Z,99741.91
2023-02-06T00:56:03.066Z,99739.78
2023-02-06T00:57:04.874Z,99734.25
2023-02-06T00:58:06.634Z,99746.19
2023-02-06T00:59:08.803Z,99753.59
2023-02-06T01:00:11.254Z,99734.63
2023-02-06T01:01:13.154Z,99750.19
2023-02-06T01:02:14.834Z,99752.66
2023-02-06T01:03:16.577Z,99745.94
2023-02-06T01:04:18.459Z,99751.97
2023-02-06T01:05:20.235Z,99748.53
2023-02-06T01:06:22.450Z,99745.50
2023-02-06T01:07:24.223Z,99748.19
2023-02-06T01:08:26.076Z,99734.75
2023-02-06T01:09:27.808Z,99730.84
2023-02-06T01:10:29.556Z,99740.41
2023-02-06T01:11:31.439Z,99746.22
2023-02-06T01:12:35.080Z,99726.97
2023-02-06T01:13:36.826Z,99733.56
2023-02-06T01:14:38.522Z,99739.00
2023-02-06T01:15:40.249Z,99738.06
2023-02-06T01:16:41.942Z,99745.59
2023-02-06T01:17:43.685Z,99751.28
2023-02-06T01:18:46.061Z,99747.50
2023-02-06T01:19:47.768Z,99742.31
2023-02-06T01:20:49.490Z,99739.72
2023-02-06T01:21:51.193Z,99733.59
2023-02-06T01:22:52.955Z,99742.81
2023-02-06T01:23:55.398Z,99729.44
2023-02-06T01:24:57.172Z,99743.50
2023-02-06T01:25:58.895Z,99744.09
2023-02-06T01:27:00.593Z,99746.56
2023-02-06T01:28:02.364Z,99741.16
2023-02-06T01:29:04.333Z,99738.31
2023-02-06T01:30:07.633Z,99739.97
2023-02-06T01:31:14.171Z,99741.50
2023-02-06T01:32:15.983Z,99739.50
2023-02-06T01:33:17.720Z,99733.25
2023-02-06T01:34:19.402Z,99736.91
2023-02-06T01:35:21.139Z,99737.28
2023-02-06T01:36:24.470Z,99732.19
2023-02-06T01:37:26.221Z,99735.38
2023-02-06T01:38:27.899Z,99733.72
2023-02-06T01:39:29.602Z,99736.44
2023-02-06T01:40:31.347Z,99739.75
2023-02-06T01:41:34.155Z,99730.88
2023-02-06T01:42:37.286Z,99732.66
2023-02-06T01:43:42.448Z,99733.34
2023-02-06T01:44:44.151Z,99746.81
2023-02-06T01:45:46.917Z,99721.94
2023-02-06T01:46:54.407Z,99728.66
2023-02-06T01:48:05.918Z,99728.53
2023-02-06T01:49:12.471Z,99740.09
2023-02-06T01:50:14.607Z,99743.41
2023-02-06T01:51:22.182Z,99733.13
2023-02-06T01:52:30.466Z,99720.59
2023-02-06T01:53:33.864Z,99739.84
2023-02-06T01:54:35.873Z,99731.00
2023-02-06T01:55:41.592Z,99738.31
2023-02-06T01:56:54.230Z,99739.25
2023-02-06T01:57:56.286Z,99736.06
2023-02-06T01:59:00.854Z,99741.53
2023-02-06T02:00:07.680Z,99737.50
2023-02-06T02:01:09.903Z,99743.63
2023-02-06T02:02:13.415Z,99735.63
2023-02-06T02:03:15.483Z,99736.66
2023-02-06T02:04:20.613Z,99735.47
2023-02-06T02:05:22.440Z,99736.16
2023-02-06T02:06:26.590Z,99733.94
2023-02-06T02:07:35.400Z,99717.53
2023-02-06T02:08:39.644Z,99726.75
2023-02-06T02:09:41.502Z,99748.22
2023-02-06T02:10:43.517Z,99735.13
2023-02-06T02:11:45.215Z,99739.38
2023-02-06T02:12:46.983Z,99744.34
2023-02-06T02:13:51.375Z,99741.97
2023-02-06T02:14:54.613Z,99747.72
2023-02-06T02:16:07.362Z,99748.91
2023-02-06T02:17:36.332Z,99749.38
2023-02-06T02:18:58.270Z,99746.66
2023-02-06T02:20:27.942Z,99754.19
2023-02-06T02:21:29.587Z,99753.53
2023-02-06T02:22:34.123Z,99753.06
2023-02-06T02:23:50.214Z,99764.75
2023-02-06T02:25:21.089Z,99755.84
2023-02-06T02:27:00.265Z,99759.09
2023-02-06T02:28:04.688Z,99745.09
2023-02-06T02:29:21.567Z,99756.06
2023-02-06T02:30:53.926Z,99751.22
2023-02-06T02:32:23.409Z,99746.03
2023-02-06T02:33:51.113Z,99753.56
2023-02-06T02:34:58.435Z,99747.56
2023-02-06T02:36:35.386Z,99752.81
2023-02-06T02:37:58.296Z,99750.66
2023-02-06T02:39:08.559Z,99752.06
2023-02-06T02:40:26.307Z,99758.59
2023-02-06T02:41:39.403Z,99752.69
2023-02-06T02:43:07.584Z,99742.38
2023-02-06T02:44:15.332Z,99742.75
2023-02-06T02:45:24.527Z,99738.47
2023-02-06T02:46:36.205Z,99755.78
2023-02-06T02:47:50.910Z,99739.97
2023-02-06T02:48:56.468Z,99757.22
2023-02-06T02:50:01.643Z,99756.28
2023-02-06T02:51:03.765Z,99755.09
2023-02-06T02:52:05.738Z,99755.44
2023-02-06T02:53:08.522Z,99743.28
2023-02-06T02:54:10.349Z,99744.09
2023-02-06T02:55:22.471Z,99742.34
2023-02-06T02:56:26.153Z,99746.78
2023-02-06T02:57:30.912Z,99741.84
2023-02-06T02:58:35.410Z,99754.69
2023-02-06T02:59:41.410Z,99753.84
2023-02-06T03:00:53.265Z,99738.69
2023-02-06T03:02:01.429Z,99752.88
2023-02-06T03:03:06.164Z,99750.16
2023-02-06T03:04:15.117Z,99750.84
2023-02-06T03:05:23.021Z,99732.41
2023-02-06T03:06:39.883Z,99751.72
2023-02-06T03:08:01.835Z,99750.22
2023-02-06T03:09:29.643Z,99747.63
2023-02-06T03:10:49.731Z,99750.44
2023-02-06T03:12:10.391Z,99750.13
2023-02-06T03:13:34.684Z,99744.75
2023-02-06T03:14:49.379Z,99740.50
2023-02-06T03:15:54.100Z,99750.03
2023-02-06T03:17:04.248Z,99748.25
2023-02-06T03:18:05.901Z,99747.13
2023-02-06T03:19:07.529Z,99745.16
2023-02-06T03:20:10.830Z,99746.69
2023-02-06T03:21:17.148Z,99741.06
2023-02-06T03:22:20.617Z,99728.66
2023-02-06T03:23:29.351Z,99733.03
2023-02-06T03:24:35.931Z,99744.38
2023-02-06T03:25:42.047Z,99742.09
2023-02-06T03:26:45.504Z,99739.41
2023-02-06T03:27:48.985Z,99745.09
2023-02-06T03:28:55.925Z,99742.22
2023-02-06T03:30:00.980Z,99742.31
2023-02-06T03:31:07.869Z,99744.22
2023-02-06T03:32:29.892Z,99744.94
2023-02-06T03:33:37.396Z,99745.41
2023-02-06T03:35:02.105Z,99716.16
2023-02-06T03:36:05.488Z,99748.34
2023-02-06T03:37:07.830Z,99753.59
2023-02-06T03:38:09.879Z,99739.31
2023-02-06T03:39:11.986Z,99756.31
2023-02-06T03:40:14.606Z,99756.16
2023-02-06T03:41:19.024Z,99744.72
2023-02-06T03:42:22.340Z,99751.16
2023-02-06T03:43:27.411Z,99757.56
2023-02-06T03:44:35.362Z,99756.72
2023-02-06T03:45:41.290Z,99757.34
2023-02-06T03:46:45.147Z,99747.50
2023-02-06T03:47:48.961Z,99756.50
2023-02-06T03:48:55.013Z,99765.41
2023-02-06T03:50:00.405Z,99765.13
2023-02-06T03:51:08.188Z,99761.31
2023-02-06T03:52:15.955Z,99763.19
2023-02-06T03:53:19.292Z,99774.59
2023-02-06T03:54:24.405Z,99777.06
2023-02-06T03:55:26.358Z,99777.91
2023-02-06T03:56:37.593Z,99783.47
2023-02-06T03:57:42.098Z,99775.41
2023-02-06T03:58:43.828Z,99774.34
2023-02-06T03:59:49.417Z,99777.78
2023-02-06T04:00:52.604Z,99770.66
2023-02-06T04:01:57.818Z,99782.94
2023-02-06T04:03:00.426Z,99784.69
2023-02-06T04:04:03.802Z,99794.47
2023-02-06T04:05:06.100Z,99793.19
2023-02-06T04:06:08.028Z,99778.94
2023-02-06T04:07:18.320Z,99788.34
2023-02-06T04:08:20.057Z,99788.75
2023-02-06T04:09:21.812Z,99788.34
2023-02-06T04:10:26.096Z,99796.50
2023-02-06T04:11:28.065Z,99783.47
2023-02-06T04:12:29.794Z,99787.81
2023-02-06T04:13:31.547Z,99784.31
2023-02-06T04:14:33.328Z,99797.53
2023-02-06T04:15:35.379Z,99780.78
2023-02-06T04:16:37.273Z,99783.56
2023-02-06T04:17:53.675Z,99789.59
2023-02-06T04:19:00.700Z,99786.91
2023-02-06T04:20:02.443Z,99785.34
2023-02-06T04:21:05.982Z,99785.75
2023-02-06T04:22:09.710Z,99790.84
2023-02-06T04:23:11.399Z,99789.03
2023-02-06T04:24:13.122Z,99793.53
2023-02-06T04:25:14.847Z,99786.59
2023-02-06T04:26:16.563Z,99773.53
2023-02-06T04:27:18.679Z,99795.47
2023-02-06T04:28:20.397Z,99787.81
2023-02-06T04:29:22.232Z,99796.94
2023-02-06T04:30:24.002Z,99789.28
2023-02-06T04:31:25.810Z,99800.22
2023-02-06T04:32:27.600Z,99793.06
2023-02-06T04:33:29.354Z,99795.47
2023-02-06T04:34:32.852Z,99796.94
2023-02-06T04:35:34.932Z,99787.09
2023-02-06T04:36:37.410Z,99792.97
2023-02-06T04:37:39.280Z,99790.19
2023-02-06T04:38:41.130Z,99789.25
2023-02-06T04:39:42.876Z,99789.88
2023-02-06T04:40:44.652Z,99788.22
2023-02-06T04:41:46.352Z,99785.66
2023-02-06T04:42:48.096Z,99785.22
2023-02-06T04:43:49.804Z,99794.72
2023-02-06T04:44:51.557Z,99795.56
2023-02-06T04:45:53.253Z,99774.75
2023-02-06T04:46:55.002Z,99777.88
2023-02-06T04:47:58.529Z,99781.97
2023-02-06T04:49:01.148Z,99773.25
2023-02-06T04:50:04.198Z,99785.47
2023-02-06T04:51:05.939Z,99773.34
2023-02-06T04:52:07.638Z,99774.63
2023-02-06T04:53:09.375Z,99773.34
2023-02-06T04:54:13.793Z,99792.53
2023-02-06T04:55:15.588Z,99787.66
2023-02-06T04:56:17.335Z,99789.41
2023-02-06T04:57:19.098Z,99785.69
2023-02-06T04:58:20.823Z,99790.88
2023-02-06T04:59:22.518Z,99793.53
2023-02-06T05:00:24.218Z,99795.41
2023-02-06T05:01:26.237Z,99796.88
2023-02-06T05:02:28.016Z,99791.78
2023-02-06T05:03:30.565Z,99804.81
2023-02-06T05:04:32.326Z,99810.06
2023-02-06T05:05:34.317Z,99810.06
2023-02-06T05:06:36.595Z,99814.59
2023-02-06T05:07:38.331Z,99817.78
2023-02-06T05:08:40.301Z,99812.34
2023-02-06T05:09:42.001Z,99803.94
2023-02-06T05:10:43.712Z,99821.44
2023-02-06T05:11:45.452Z,99821.63
2023-02-06T05:12:47.447Z,99825.34
2023-02-06T05:13:49.161Z,99823.22
2023-02-06T05:14:50.940Z,99832.72
2023-02-06T05:15:52.969Z,99828.41
2023-02-06T05:16:54.766Z,99833.56
2023-02-06T05:17:56.504Z,99819.81
2023-02-06T05:18:58.314Z,99815.00
2023-02-06T05:20:00.272Z,99820.41
2023-02-06T05:21:02.149Z,99832.13
2023-02-06T05:22:03.922Z,99829.53
2023-02-06T05:23:05.638Z,99826.13
2023-02-06T05:24:07.628Z,99844.13
2023-02-06T05:25:09.364Z,99839.88
2023-02-06T05:26:11.118Z,99843.56
2023-02-06T05:27:12.846Z,99847.16
2023-02-06T05:28:14.599Z,99853.56
2023-02-06T05:29:16.620Z,99855.22
2023-02-06T05:30:18.918Z,99845.25
2023-02-06T05:31:20.769Z,99848.38
2023-02-06T05:32:22.550Z,99846.50
2023-02-06T05:33:24.265Z,99834.19
2023-02-06T05:34:26.097Z,99844.56
2023-02-06T05:35:28.279Z,99844.47
2023-02-06T05:36:30.084Z,99843.75
2023-02-06T05:37:32.112Z,99831.84
2023-02-06T05:38:34.554Z,99851.31
2023-02-06T05:39:36.299Z,99853.88
2023-02-06T05:40:38.094Z,99837.31
2023-02-06T05:41:40.034Z,99836.50
2023-02-06T05:42:41.752Z,99847.84
2023-02-06T05:43:43.514Z,99837.53
2023-02-06T05:44:45.218Z,99858.81
2023-02-06T05:45:46.948Z,99860.16
2023-02-06T05:46:48.693Z,99857.66
2023-02-06T05:47:50.539Z,99855.22
2023-02-06T05:48:52.332Z,99862.97
2023-02-06T05:49:54.032Z,99870.50
2023-02-06T05:50:55.755Z,99848.75
2023-02-06T05:51:57.548Z,99868.13
2023-02-06T05:52:59.264Z,99863.06
2023-02-06T05:54:01.021Z,99871.13
2023-02-06T05:55:02.781Z,99876.41
2023-02-06T05:56:05.400Z,99866.91
2023-02-06T05:57:07.464Z,99872.72
2023-02-06T05:58:09.160Z,99881.53
2023-02-06T05:59:10.954Z,99878.78
2023-02-06T06:00:13.767Z,99877.47
2023-02-06T06:01:15.512Z,99881.91
2023-02-06T06:02:17.283Z,99883.69
2023-02-06T06:03:19.311Z,99880.78
2023-02-06T06:04:21.160Z,99888.44
2023-02-06T06:05:22.943Z,99888.28
2023-02-06T06:06:24.676Z,99891.59
2023-02-06T06:07:26.465Z,99897.28
2023-02-06T06:08:28.476Z,99893.59
2023-02-06T06:09:30.170Z,99886.66
2023-02-06T06:10:31.894Z,99900.84
2023-02-06T06:11:33.669Z,99876.59
2023-02-06T06:12:35.362Z,99889.75
2023-02-06T06:13:37.144Z,99889.75
2023-02-06T06:14:38.902Z,99883.16
2023-02-06T06:15:40.649Z,99889.06
2023-02-06T06:16:42.838Z,99892.84
2023-02-06T06:17:44.521Z,99875.25
2023-02-06T06:18:46.256Z,99884.16
2023-02-06T06:19:47.980Z,99889.06
2023-02-06T06:20:49.752Z,99880.94
2023-02-06T06:21:51.663Z,99888.22
2023-02-06T06:22:53.384Z,99897.34
2023-02-06T06:23:55.110Z,99905.81
2023-02-06T06:24:56.830Z,99892.72
2023-02-06T06:25:58.533Z,99897.47
2023-02-06T06:27:00.328Z,99905.03
2023-02-06T06:28:02.607Z,99905.03
2023-02-06T06:29:04.522Z,99896.44
2023-02-06T06:30:06.778Z,99906.50
2023-02-06T06:31:14.020Z,99908.16
2023-02-06T06:32:15.759Z,99905.59
2023-02-06T06:33:17.971Z,99905.88
2023-02-06T06:34:19.732Z,99872.97
2023-02-06T06:35:21.513Z,99907.75
2023-02-06T06:36:23.249Z,99905.19
2023-02-06T06:37:24.932Z,99907.38
2023-02-06T06:38:26.752Z,99911.63
2023-02-06T06:39:28.481Z,99908.81
2023-02-06T06:40:30.155Z,99905.66
2023-02-06T06:41:31.914Z,99909.81
2023-02-06T06:42:33.592Z,99907.81
2023-02-06T06:43:35.664Z,99895.22
2023-02-06T06:44:37.496Z,99909.09
2023-02-06T06:45:39.478Z,99906.50
2023-02-06T06:46:41.400Z,99916.84
2023-02-06T06:47:43.105Z,99914.59
2023-02-06T06:48:44.811Z,99921.22
2023-02-06T06:49:46.526Z,99909.72
2023-02-06T06:50:50.415Z,99921.72
2023-02-06T06:51:52.107Z,99920.81
2023-02-06T06:52:53.911Z,99902.09
2023-02-06T06:53:56.579Z,99913.47
2023-02-06T06:54:58.304Z,99923.94
2023-02-06T06:56:04.586Z,99924.34
2023-02-06T06:57:06.372Z,99927.84
2023-02-06T06:58:08.108Z,99922.47
2023-02-06T06:59:09.806Z,99931.16
2023-02-06T07:00:12.908Z,99927.88
2023-02-06T07:01:15.129Z,99932.00
2023-02-06T07:02:17.629Z,99915.66
2023-02-06T07:03:19.444Z,99920.09
2023-02-06T07:04:21.720Z,99929.22
2023-02-06T07:05:23.651Z,99909.53
2023-02-06T07:06:25.402Z,99928.19
2023-02-06T07:07:27.163Z,99923.31
2023-02-06T07:08:31.694Z,99917.72
2023-02-06T07:09:33.439Z,99919.69
2023-02-06T07:10:35.243Z,99933.66
2023-02-06T07:11:36.988Z,99933.97
2023-02-06T07:12:39.379Z,99938.94
2023-02-06T07:13:42.666Z,99930.34
2023-02-06T07:14:44.404Z,99932.94
2023-02-06T07:15:46.125Z,99919.78
2023-02-06T07:16:47.876Z,99938.75
2023-02-06T07:17:49.649Z,99939.56
2023-02-06T07:18:51.374Z,99935.22
2023-02-06T07:19:53.093Z,99942.91
2023-02-06T07:20:54.770Z,99946.22
2023-02-06T07:21:56.580Z,99938.56
2023-02-06T07:22:58.383Z,99944.94
2023-02-06T07:24:02.870Z,99955.50
2023-02-06T07:25:05.617Z,99934.31
2023-02-06T07:26:07.514Z,99948.38
2023-02-06T07:27:09.346Z,99951.69
2023-02-06T07:28:11.357Z,99944.13
2023-02-06T07:29:13.128Z,99950.97
2023-02-06T07:30:15.255Z,99949.41
2023-02-06T07:31:17.184Z,99945.50
2023-02-06T07:32:18.949Z,99948.06
2023-02-06T07:33:20.675Z,99953.44
2023-02-06T07:34:22.448Z,99960.81
2023-02-06T07:35:24.135Z,99959.25
2023-02-06T07:36:25.853Z,99950.56
2023-02-06T07:37:27.547Z,99944.75
2023-02-06T07:38:29.293Z,99944.31
2023-02-06T07:39:31.898Z,99958.72
2023-02-06T07:40:44.701Z,99955.00
2023-02-06T07:41:49.356Z,99960.19
2023-02-06T07:42:51.512Z,99958.59
2023-02-06T07:43:55.088Z,99942.66
2023-02-06T07:44:56.800Z,99955.50
2023-02-06T07:46:02.640Z,99958.41
2023-02-06T07:47:05.793Z,99955.59
2023-02-06T07:48:07.898Z,99952.88
2023-02-06T07:49:13.079Z,99959.03
2023-02-06T07:50:14.824Z,99961.47
2023-02-06T07:51:16.637Z,99957.97
2023-02-06T07:52:20.274Z,99967.28
2023-02-06T07:53:22.092Z,99973.94
2023-02-06T07:54:23.859Z,99963.03
2023-02-06T07:55:26.057Z,99967.56
2023-02-06T07:56:27.755Z,99961.91
2023-02-06T07:57:29.504Z,99962.72
2023-02-06T07:58:31.209Z,99973.94
2023-02-06T07:59:33.040Z,99964.81
2023-02-06T08:00:34.780Z,99961.63
2023-02-06T08:01:36.762Z,99971.22
2023-02-06T08:02:38.467Z,99964.59
2023-02-06T08:03:40.226Z,99968.75
2023-02-06T08:04:42.030Z,99967.50
2023-02-06T08:05:43.778Z,99972.06
2023-02-06T08:06:45.792Z,99977.53
2023-02-06T08:07:47.493Z,99981.34
2023-02-06T08:08:49.720Z,99980.50
2023-02-06T08:09:51.414Z,99973.03
2023-02-06T08:10:53.259Z,99965.41
2023-02-06T08:11:54.980Z,99966.41
2023-02-06T08:12:56.680Z,99977.78
2023-02-06T08:13:58.504Z,99956.97
2023-02-06T08:15:00.189Z,99966.56
2023-02-06T08:16:06.561Z,99974.66
2023-02-06T08:17:08.389Z,99975.38
2023-02-06T08:18:10.125Z,99981.50
2023-02-06T08:19:12.457Z,99976.53
2023-02-06T08:20:14.364Z,99982.53
2023-02-06T08:21:19.512Z,99988.66
2023-02-06T08:22:21.269Z,99970.66
2023-02-06T08:23:22.944Z,99976.34
2023-02-06T08:24:24.632Z,99978.50
2023-02-06T08:25:26.578Z,99972.47
2023-02-06T08:26:29.685Z,99983.25
2023-02-06T08:27:32.250Z,99983.25
2023-02-06T08:28:35.514Z,99989.38
2023-02-06T08:29:42.435Z,99982.31
2023-02-06T08:30:44.276Z,99982.28
2023-02-06T08:31:46.178Z,99984.31
2023-02-06T08:32:48.298Z,99986.94
2023-02-06T08:33:50.874Z,99992.03
2023-02-06T08:34:52.954Z,100000.91
2023-02-06T08:35:54.685Z,99994.25
2023-02-06T08:36:56.375Z,99976.91
2023-02-06T08:37:58.124Z,99984.72
2023-02-06T08:39:01.354Z,99990.69
2023-02-06T08:40:03.175Z,99990.19
2023-02-06T08:41:06.133Z,99998.72
2023-02-06T08:42:07.838Z,99994.84
2023-02-06T08:43:09.524Z,99998.28
2023-02-06T08:44:14.535Z,99991.53
2023-02-06T08:45:16.431Z,99985.97
2023-02-06T08:46:20.130Z,99996.16
2023-02-06T08:47:21.894Z,99981.38
2023-02-06T08:48:23.932Z,99993.22
2023-02-06T08:49:28.419Z,99994.66
2023-02-06T08:50:30.118Z,99989.34
2023-02-06T08:51:33.303Z,99985.09
2023-02-06T08:52:35.045Z,99971.72
2023-02-06T08:53:36.840Z,99983.00
2023-02-06T08:54:39.035Z,99998.47
2023-02-06T08:55:41.090Z,99988.28
2023-02-06T08:56:43.037Z,99997.75
2023-02-06T08:57:44.723Z,99987.94
2023-02-06T08:58:46.437Z,100000.22
2023-02-06T08:59:48.376Z,99986.59
2023-02-06T09:00:50.062Z,99987.66
2023-02-06T09:01:52.275Z,99998.03
2023-02-06T09:02:55.027Z,99996.66
2023-02-06T09:03:58.866Z,99992.72
2023-02-06T09:05:00.541Z,99992.78
2023-02-06T09:06:09.840Z,99995.50
2023-02-06T09:07:12.143Z,99994.56
2023-02-06T09:08:13.851Z,99992.22
2023-02-06T09:09:16.026Z,99998.88
2023-02-06T09:10:27.137Z,100000.56
2023-02-06T09:11:30.019Z,99997.00
2023-02-06T09:12:31.748Z,100002.19
2023-02-06T09:13:33.740Z,99996.22
2023-02-06T09:14:35.600Z,99988.91
2023-02-06T09:15:37.762Z,99995.03
2023-02-06T09:16:39.620Z,99990.31
2023-02-06T09:17:41.311Z,99986.38
2023-02-06T09:18:43.434Z,100000.31
2023-02-06T09:19:45.291Z,99988.03
2023-02-06T09:20:49.829Z,99990.47
2023-02-06T09:21:51.570Z,99988.47
2023-02-06T09:22:53.931Z,99993.09
2023-02-06T09:24:01.554Z,99987.06
2023-02-06T09:25:03.343Z,99996.13
2023-02-06T09:26:05.656Z,99997.47
2023-02-06T09:27:07.429Z,99999.16
2023-02-06T09:28:09.167Z,99988.72
2023-02-06T09:29:12.546Z,99993.63
2023-02-06T09:30:15.227Z,99983.91
2023-02-06T09:31:17.079Z,99991.13
2023-02-06T09:32:18.817Z,99982.97
2023-02-06T09:33:21.354Z,99989.50
2023-02-06T09:34:24.461Z,99989.25
2023-02-06T09:35:26.181Z,99988.59
2023-02-06T09:36:30.314Z,99986.53
2023-02-06T09:37:32.119Z,99995.66
2023-02-06T09:38:34.486Z,99981.44
2023-02-06T09:39:36.393Z,99982.00
2023-02-06T09:40:38.177Z,99984.91
2023-02-06T09:41:46.488Z,99986.94
2023-02-06T09:42:48.757Z,99977.97
2023-02-06T09:44:18.528Z,99976.59
2023-02-06T09:45:22.822Z,99967.06
2023-02-06T09:46:31.592Z,99974.66
2023-02-06T09:47:36.048Z,99980.56
2023-02-06T09:48:39.737Z,99982.59
2023-02-06T09:50:07.822Z,99975.13
2023-02-06T09:51:27.156Z,99966.22
2023-02-06T09:52:36.235Z,99966.69
2023-02-06T09:53:59.861Z,99960.69
2023-02-06T09:55:15.794Z,99960.81
2023-02-06T09:56:26.236Z,99960.00
2023-02-06T09:57:40.075Z,99957.41
2023-02-06T09:58:48.944Z,99945.59
2023-02-06T10:00:00.762Z,99954.78
2023-02-06T10:01:23.824Z,99948.56
2023-02-06T10:02:42.078Z,99949.78
2023-02-06T10:03:49.491Z,99948.88
2023-02-06T10:04:54.007Z,99942.47
2023-02-06T10:06:27.122Z,99939.94
2023-02-06T10:07:55.795Z,99944.53
2023-02-06T10:09:05.769Z,99940.94
2023-02-06T10:10:27.439Z,99946.72
2023-02-06T10:11:48.088Z,99939.63
2023-02-06T10:13:24.651Z,99942.78
2023-02-06T10:14:48.726Z,99941.94
2023-02-06T10:15:55.356Z,99923.16
2023-02-06T10:17:12.112Z,99938.28
2023-02-06T10:18:44.176Z,99933.00
2023-02-06T10:19:58.245Z,99931.38
2023-02-06T10:21:12.092Z,99925.41
2023-02-06T10:22:37.924Z,99926.81
2023-02-06T10:23:51.031Z,99922.28
2023-02-06T10:25:13.856Z,99927.84
2023-02-06T10:26:18.230Z,99926.25
2023-02-06T10:27:20.552Z,99926.84
2023-02-06T10:28:22.269Z,99923.88
2023-02-06T10:29:27.711Z,99925.50
2023-02-06T10:31:03.950Z,99924.13
2023-02-06T10:32:40.400Z,99924.59
2023-02-06T10:33:54.734Z,99918.06
2023-02-06T10:35:02.193Z,99911.41
2023-02-06T10:36:19.083Z,99919.31
2023-02-06T10:37:27.782Z,99910.25
2023-02-06T10:38:29.511Z,99913.19
2023-02-06T10:39:58.415Z,99908.63
2023-02-06T10:41:18.085Z,99909.53
2023-02-06T10:42:37.804Z,99901.97
2023-02-06T10:44:16.863Z,99907.06
2023-02-06T10:45:33.398Z,99904.75
2023-02-06T10:46:46.450Z,99897.25
2023-02-06T10:48:12.682Z,99894.84
2023-02-06T10:49:20.042Z,99904.78
2023-02-06T10:50:32.760Z,99905.63
2023-02-06T10:51:38.484Z,99893.84
2023-02-06T10:52:40.522Z,99899.78
2023-02-06T10:53:53.448Z,99898.94
2023-02-06T10:54:58.889Z,99897.53
2023-02-06T10:56:12.719Z,99893.28
2023-02-06T10:57:18.962Z,99891.44
2023-02-06T10:58:25.368Z,99896.97
2023-02-06T10:59:39.321Z,99897.72
2023-02-06T11:00:41.170Z,99894.91
2023-02-06T11:01:44.847Z,99872.06
2023-02-06T11:03:05.383Z,99886.28
2023-02-06T11:04:40.796Z,99885.38
2023-02-06T11:05:42.518Z,99877.69
2023-02-06T11:06:46.911Z,99887.06
2023-02-06T11:08:20.674Z,99881.28
2023-02-06T11:09:22.408Z,99871.69
2023-02-06T11:10:26.422Z,99874.22
2023-02-06T11:11:30.863Z,99873.63
2023-02-06T11:12:42.742Z,99866.34
2023-02-06T11:13:47.768Z,99872.56
2023-02-06T11:14:51.636Z,99865.22
2023-02-06T11:16:15.604Z,99873.63
2023-02-06T11:17:20.956Z,99882.47
2023-02-06T11:18:29.846Z,99871.03
2023-02-06T11:19:37.621Z,99880.31
2023-02-06T11:20:43.266Z,99879.59
2023-02-06T11:22:07.593Z,99879.06
2023-02-06T11:23:17.046Z,99869.09
2023-02-06T11:24:21.908Z,99865.69
2023-02-06T11:25:28.367Z,99866.06
2023-02-06T11:26:30.894Z,99867.03
2023-02-06T11:27:34.964Z,99866.34
2023-02-06T11:28:41.683Z,99862.78
2023-02-06T11:29:51.929Z,99864.28
2023-02-06T11:31:08.691Z,99868.16
2023-02-06T11:32:29.634Z,99849.78
2023-02-06T11:33:39.991Z,99858.41
2023-02-06T11:34:54.863Z,99866.31
2023-02-06T11:35:59.668Z,99862.50
2023-02-06T11:37:04.508Z,99854.72
2023-02-06T11:38:18.881Z,99864.97
2023-02-06T11:39:26.155Z,99866.97
2023-02-06T11:40:28.520Z,99861.66
2023-02-06T11:41:31.415Z,99860.63
2023-02-06T11:42:35.076Z,99863.25
2023-02-06T11:43:42.587Z,99866.44
2023-02-06T11:44:48.614Z,99855.19
2023-02-06T11:46:04.788Z,99859.31
2023-02-06T11:47:37.449Z,99855.66
2023-02-06T11:48:40.969Z,99861.31
2023-02-06T11:49:42.659Z,99859.56
2023-02-06T11:50:54.299Z,99856.72
2023-02-06T11:52:03.896Z,99850.28
2023-02-06T11:53:17.056Z,99861.53
2023-02-06T11:54:38.047Z,99860.97
2023-02-06T11:55:40.716Z,99857.41
2023-02-06T11:57:15.374Z,99856.25
2023-02-06T11:58:22.959Z,99853.91
2023-02-06T11:59:27.147Z,99852.13
2023-02-06T12:00:29.296Z,99851.59
2023-02-06T12:01:40.940Z,99850.63
2023-02-06T12:02:51.415Z,99840.16
2023-02-06T12:03:57.547Z,99853.63
2023-02-06T12:05:14.303Z,99857.31
2023-02-06T12:06:27.986Z,99849.06
2023-02-06T12:07:39.515Z,99838.91
2023-02-06T12:08:44.132Z,99855.94
2023-02-06T12:09:45.880Z,99851.31
2023-02-06T12:11:00.208Z,99844.97
2023-02-06T12:12:13.991Z,99852.13
2023-02-06T12:13:26.342Z,99843.88
2023-02-06T12:14:41.972Z,99849.38
2023-02-06T12:15:48.566Z,99850.63
2023-02-06T12:16:52.140Z,99852.63
2023-02-06T12:18:00.927Z,99850.38
2023-02-06T12:19:05.699Z,99858.50
2023-02-06T12:20:20.941Z,99859.88
2023-02-06T12:21:47.020Z,99855.63
2023-02-06T12:22:58.414Z,99861.31
2023-02-06T12:24:01.887Z,99860.91
2023-02-06T12:25:05.021Z,99849.34
2023-02-06T12:26:19.300Z,99852.78
2023-02-06T12:27:40.691Z,99857.72
2023-02-06T12:28:48.081Z,99865.44
2023-02-06T12:30:06.506Z,99861.22
2023-02-06T12:31:24.870Z,99855.75
2023-02-06T12:32:36.865Z,99854.94
2023-02-06T12:33:50.673Z,99855.38
2023-02-06T12:34:55.779Z,99859.53
2023-02-06T12:36:07.504Z,99859.25
2023-02-06T12:37:21.363Z,99865.72
2023-02-06T12:38:54.335Z,99854.31
2023-02-06T12:39:56.112Z,99849.47
2023-02-06T12:41:22.583Z,99857.22
2023-02-06T12:42:36.484Z,99855.44
2023-02-06T12:43:42.349Z,99845.94
2023-02-06T12:45:06.032Z,99858.19
2023-02-06T12:46:16.219Z,99859.41
2023-02-06T12:47:24.602Z,99860.78
2023-02-06T12:48:39.140Z,99852.97
2023-02-06T12:50:13.716Z,99866.81
2023-02-06T12:51:46.239Z,99868.63
2023-02-06T12:53:01.430Z,99869.03